Time;durP1;ratioP1;P1;durP2;ratioP2;P2;SDS_P1;SDS_P2;PMS_P1;PMS_P2;Temp;Humidity;BMP_temperature;BMP_pressure;BME280_temperature;BME280_humidity;BME280_pressure;Samples;Min_cycle;Max_cycle;Signal;HPM_P1;HPM_P2
2022/12/07 00:01:41;;;;;;;7.72;6.43;;;;;;;7.64;68.84;99750.91;5032625;28;20057;-80
2022/12/07 00:04:12;;;;;;;6.57;5.97;;;;;;;7.60;69.19;99744.97;5032446;28;20531;-80
2022/12/07 00:09:16;;;;;;;9.35;6.18;;;;;;;7.59;69.16;99742.41;5049482;22;20053;-79
2022/12/07 00:11:44;;;;;;;9.00;6.22;;;;;;;7.60;68.91;99747.59;5051048;28;20139;-79
2022/12/07 00:14:14;;;;;;;10.65;6.70;;;;;;;7.59;69.23;99743.25;5049997;28;20076;-80
2022/12/07 00:16:40;;;;;;;8.02;6.20;;;;;;;7.60;69.00;99736.25;5050573;28;20503;-80
2022/12/07 00:19:06;;;;;;;7.85;6.03;;;;;;;7.59;69.26;99732.75;5050934;28;20048;-80
2022/12/07 00:21:35;;;;;;;7.38;5.38;;;;;;;7.59;69.32;99724.06;5050932;28;20085;-80
2022/12/07 00:24:03;;;;;;;6.82;5.05;;;;;;;7.59;69.04;99722.28;5051114;28;20057;-79
2022/12/07 00:26:33;;;;;;;6.38;5.25;;;;;;;7.58;69.09;99723.22;5050687;28;20568;-80
2022/12/07 00:29:02;;;;;;;5.53;4.85;;;;;;;7.58;69.21;99723.22;5049514;28;20102;-79
2022/12/07 00:31:35;;;;;;;10.13;5.13;;;;;;;7.56;69.09;99723.28;5049448;28;20504;-80
2022/12/07 00:34:02;;;;;;;5.63;4.57;;;;;;;7.56;68.84;99725.91;5050710;28;20045;-80
2022/12/07 00:36:28;;;;;;;6.47;5.20;;;;;;;7.56;68.79;99717.22;5050439;28;20495;-79
2022/12/07 00:38:57;;;;;;;9.23;5.15;;;;;;;7.55;68.41;99723.34;5050343;28;20537;-80
2022/12/07 00:41:25;;;;;;;6.70;5.55;;;;;;;7.52;68.65;99721.72;5050560;28;20085;-80
2022/12/07 00:43:52;;;;;;;9.85;5.70;;;;;;;7.50;68.53;99722.69;5050415;28;20072;-80
2022/12/07 00:46:20;;;;;;;8.93;5.72;;;;;;;7.47;68.56;99718.47;5049412;28;20625;-80
2022/12/07 00:48:48;;;;;;;9.45;5.57;;;;;;;7.44;68.72;99715.97;5050445;28;20090;-80
2022/12/07 00:51:16;;;;;;;8.85;5.25;;;;;;;7.41;68.43;99713.50;5050552;28;20048;-80
2022/12/07 00:53:43;;;;;;;8.05;5.22;;;;;;;7.39;68.49;99717.94;5049235;28;20084;-80
2022/12/07 00:56:15;;;;;;;6.50;4.97;;;;;;;7.35;69.11;99711.13;5050240;28;20044;-79
2022/12/07 00:58:42;;;;;;;4.68;4.18;;;;;;;7.36;68.73;99715.47;5050008;28;20084;-80
2022/12/07 01:01:10;;;;;;;8.38;4.85;;;;;;;7.35;68.81;99721.63;5050210;28;20111;-80
2022/12/07 01:03:37;;;;;;;9.07;4.80;;;;;;;7.32;68.64;99709.50;5050122;28;20049;-79
2022/12/07 01:06:04;;;;;;;7.70;4.07;;;;;;;7.29;68.50;99709.66;5049938;28;20698;-80
2022/12/07 01:08:31;;;;;;;5.97;4.28;;;;;;;7.28;68.65;99707.94;5049751;28;20080;-80
2022/12/07 01:11:03;;;;;;;6.18;4.40;;;;;;;7.23;68.52;99707.31;5050053;28;20139;-80
2022/12/07 01:13:30;;;;;;;4.75;3.90;;;;;;;7.21;68.19;99717.00;5050085;28;20244;-79
2022/12/07 01:16:03;;;;;;;5.55;4.45;;;;;;;7.15;68.83;99724.19;5049862;28;20584;-80
2022/12/07 01:18:31;;;;;;;9.13;4.05;;;;;;;7.12;68.17;99716.50;5049918;28;20048;-80
2022/12/07 01:21:16;;;;;;;6.93;3.95;;;;;;;7.04;69.00;99703.72;5049986;28;20144;-79
2022/12/07 01:23:43;;;;;;;5.40;3.88;;;;;;;7.05;68.59;99717.66;5049660;28;20084;-79
2022/12/07 01:26:13;;;;;;;6.78;4.15;;;;;;;7.00;68.47;99715.22;5049535;28;20063;-79
2022/12/07 01:28:39;;;;;;;11.15;4.72;;;;;;;6.97;68.47;99709.28;5049659;28;20106;-80
2022/12/07 01:31:10;;;;;;;7.20;3.97;;;;;;;6.93;68.96;99711.19;5049875;28;20080;-80
2022/12/07 01:33:37;;;;;;;8.65;4.18;;;;;;;6.90;68.67;99703.47;5049801;28;20089;-79
2022/12/07 01:36:15;;;;;;;5.60;3.95;;;;;;;6.88;68.84;99711.38;5049417;28;20053;-79
2022/12/07 01:38:42;;;;;;;8.40;3.60;;;;;;;6.85;68.67;99716.75;5048091;28;20084;-79
2022/12/07 01:41:09;;;;;;;6.78;3.67;;;;;;;6.81;68.34;99704.72;5049634;28;20052;-79
2022/12/07 01:43:36;;;;;;;7.10;3.10;;;;;;;6.78;68.73;99715.31;5049623;28;20111;-79
2022/12/07 01:46:03;;;;;;;3.53;2.97;;;;;;;6.73;68.58;99712.03;5049329;28;20076;-79
2022/12/07 01:48:40;;;;;;;4.63;3.20;;;;;;;6.68;69.20;99719.19;5049266;28;20056;-79
2022/12/07 01:51:13;;;;;;;5.55;2.58;;;;;;;6.67;69.08;99726.22;5049489;28;20088;-79
2022/12/07 01:53:44;;;;;;;4.18;2.50;;;;;;;6.64;68.55;99728.94;5049508;28;20491;-79
2022/12/07 01:56:16;;;;;;;4.72;2.60;;;;;;;6.61;68.35;99724.69;5049448;28;20080;-78
2022/12/07 01:58:44;;;;;;;5.53;2.50;;;;;;;6.59;68.47;99726.53;5049341;28;20087;-79
2022/12/07 02:01:10;;;;;;;5.72;2.58;;;;;;;6.55;68.25;99719.72;5049324;28;20084;-79
2022/12/07 02:03:42;;;;;;;4.15;2.38;;;;;;;6.48;68.69;99718.28;5049177;28;21182;-79
2022/12/07 02:06:11;;;;;;;9.02;2.50;;;;;;;6.45;68.26;99719.25;5047947;28;20294;-79
2022/12/07 02:08:38;;;;;;;3.05;2.10;;;;;;;6.43;68.04;99717.63;5049080;28;20084;-79
2022/12/07 02:11:07;;;;;;;4.32;2.10;;;;;;;6.36;68.21;99719.63;5049292;28;20049;-79
2022/12/07 02:13:36;;;;;;;4.95;2.22;;;;;;;6.32;68.13;99721.50;5049232;28;20088;-79
2022/12/07 02:16:21;;;;;;;4.18;2.30;;;;;;;6.28;68.19;99717.28;5048980;28;20080;-79
2022/12/07 02:19:03;;;;;;;3.00;1.80;;;;;;;6.24;68.35;99715.72;5048830;28;20052;-79
2022/12/07 02:22:11;;;;;;;4.20;2.00;;;;;;;6.14;68.78;99717.88;5049232;28;20084;-79
2022/12/07 02:24:46;;;;;;;3.40;2.10;;;;;;;6.11;68.35;99705.78;5049195;28;20111;-79
2022/12/07 02:27:31;;;;;;;7.32;2.90;;;;;;;6.03;68.92;99700.00;5048673;28;20080;-79
2022/12/07 02:30:02;;;;;;;8.18;2.60;;;;;;;6.00;68.79;99700.94;5048985;28;20095;-79
2022/12/07 02:32:54;;;;;;;7.32;2.67;;;;;;;5.94;69.08;99701.16;5049001;28;20137;-78
2022/12/07 02:35:40;;;;;;;4.57;1.85;;;;;;;5.89;68.86;99702.22;5049071;28;20564;-79
2022/12/07 02:38:24;;;;;;;5.03;1.98;;;;;;;5.85;69.01;99701.50;5048627;28;20049;-79
2022/12/07 02:41:40;;;;;;;6.15;2.85;;;;;;;5.79;69.17;99697.38;5048792;28;20049;-78
2022/12/07 02:44:12;;;;;;;4.57;2.03;;;;;;;5.81;68.67;99705.16;5045155;28;20087;-79
2022/12/07 02:46:53;;;;;;;4.47;1.63;;;;;;;5.74;69.00;99697.56;5048709;28;20052;-80
2022/12/07 02:49:22;;;;;;;5.50;1.88;;;;;;;5.74;68.78;99704.53;5048714;28;20136;-78
2022/12/07 02:51:49;;;;;;;6.68;1.80;;;;;;;5.72;68.68;99703.75;5049069;28;20080;-79
2022/12/07 02:54:20;;;;;;;5.35;1.77;;;;;;;5.69;69.07;99702.06;5048942;28;20048;-79
2022/12/07 02:56:56;;;;;;;3.03;1.80;;;;;;;5.68;69.37;99699.56;5048276;28;20053;-79
2022/12/07 02:59:47;;;;;;;4.70;2.05;;;;;;;5.67;69.73;99696.09;5048699;28;20072;-79
2022/12/07 03:02:26;;;;;;;4.78;1.80;;;;;;;5.68;69.63;99696.94;5048845;28;20076;-79
2022/12/07 03:05:30;;;;;;;6.32;1.77;;;;;;;5.68;70.38;99689.94;5048335;28;20505;-79
2022/12/07 03:08:02;;;;;;;2.95;1.52;;;;;;;5.72;69.71;99682.84;5048289;28;20091;-79
2022/12/07 03:10:39;;;;;;;4.05;1.98;;;;;;;5.76;69.36;99691.41;5050154;28;20139;-79
2022/12/07 03:13:08;;;;;;;7.90;1.90;;;;;;;5.77;69.01;99680.91;5052546;28;20143;-79
2022/12/07 03:15:56;;;;;;;5.38;1.80;;;;;;;5.74;69.31;99679.28;5052046;28;20581;-79
2022/12/07 03:18:27;;;;;;;5.03;1.42;;;;;;;5.74;69.23;99688.84;5051869;28;20499;-79
2022/12/07 03:20:58;;;;;;;5.22;1.65;;;;;;;5.72;69.11;99690.69;5052390;28;20084;-79
2022/12/07 03:23:25;;;;;;;3.67;1.50;;;;;;;5.72;68.96;99691.53;5052272;28;20065;-78
2022/12/07 03:25:59;;;;;;;3.92;1.63;;;;;;;5.70;69.15;99693.34;5051822;28;20108;-79
2022/12/07 03:28:31;;;;;;;5.43;2.00;;;;;;;5.71;69.12;99686.34;5051852;28;20102;-79
2022/12/07 03:31:05;;;;;;;4.65;1.55;;;;;;;5.70;69.21;99684.66;5052011;28;20117;-79
2022/12/07 03:33:39;;;;;;;3.50;1.58;;;;;;;5.69;69.38;99694.25;5052090;28;20045;-79
2022/12/07 03:36:11;;;;;;;7.22;2.15;;;;;;;5.71;69.23;99686.34;5051917;28;20084;-79
2022/12/07 03:38:45;;;;;;;4.63;1.65;;;;;;;5.71;69.10;99686.34;5051748;28;20060;-80
2022/12/07 03:41:18;;;;;;;4.47;1.92;;;;;;;5.69;69.01;99686.41;5050486;28;20053;-79
2022/12/07 03:43:44;;;;;;;5.28;1.88;;;;;;;5.70;68.72;99677.69;5051496;28;20072;-79
2022/12/07 03:46:44;;;;;;;7.03;1.67;;;;;;;5.65;69.49;99681.38;5051451;28;20084;-79
2022/12/07 03:49:34;;;;;;;4.60;1.95;;;;;;;5.61;69.18;99681.47;5051633;28;20430;-79
2022/12/07 03:52:35;;;;;;;5.22;1.70;;;;;;;5.59;69.41;99680.72;5051639;28;20049;-79
2022/12/07 03:55:08;;;;;;;8.40;1.90;;;;;;;5.59;69.11;99688.53;5051465;28;20080;-79
2022/12/07 03:57:37;;;;;;;5.10;1.90;;;;;;;5.59;69.04;99677.22;5051202;28;20474;-79
2022/12/07 04:00:07;;;;;;;5.05;1.48;;;;;;;5.57;69.08;99682.50;5051364;28;20136;-79
2022/12/07 04:02:34;;;;;;;2.55;1.08;;;;;;;5.56;69.07;99687.78;5050216;28;20122;-79
2022/12/07 04:05:00;;;;;;;5.07;2.30;;;;;;;5.56;69.22;99679.94;5051181;28;20049;-79
2022/12/07 04:07:27;;;;;;;5.40;1.67;;;;;;;5.57;69.30;99681.69;5051099;28;20053;-79
2022/12/07 04:09:54;;;;;;;5.13;1.83;;;;;;;5.58;69.23;99685.97;5049688;28;20499;-79
2022/12/07 04:12:21;;;;;;;5.68;1.50;;;;;;;5.59;69.64;99678.09;5051122;28;20052;-79
2022/12/07 04:14:48;;;;;;;3.33;1.40;;;;;;;5.62;69.20;99682.34;5050971;28;20089;-79
2022/12/07 04:17:14;;;;;;;3.72;1.55;;;;;;;5.66;69.51;99678.72;5050861;28;20049;-79
2022/12/07 04:19:40;;;;;;;8.15;1.70;;;;;;;5.68;69.56;99676.88;5051011;28;20139;-79
2022/12/07 04:22:07;;;;;;;8.07;1.98;;;;;;;5.71;69.69;99682.00;5050996;28;20093;-79
2022/12/07 04:24:34;;;;;;;7.07;1.70;;;;;;;5.74;69.62;99687.13;5050726;28;20092;-79
2022/12/07 04:27:00;;;;;;;4.97;1.55;;;;;;;5.78;69.65;99676.53;5050655;28;20091;-79
2022/12/07 04:29:27;;;;;;;5.78;1.45;;;;;;;5.80;69.69;99675.56;5050805;28;20525;-80
2022/12/07 04:31:53;;;;;;;5.78;1.63;;;;;;;5.82;69.36;99675.50;5050853;28;20502;-79
2022/12/07 04:34:20;;;;;;;4.63;1.40;;;;;;;5.85;69.53;99678.88;5050896;28;20048;-79
2022/12/07 04:36:47;;;;;;;2.60;1.30;;;;;;;5.87;69.32;99679.63;5049081;28;20074;-79
2022/12/07 04:39:28;;;;;;;3.17;1.52;;;;;;;5.86;69.56;99677.94;5050630;28;20080;-79
2022/12/07 04:41:55;;;;;;;6.40;1.70;;;;;;;5.91;69.25;99675.13;5050407;28;20457;-79
2022/12/07 04:44:23;;;;;;;5.60;1.48;;;;;;;5.92;69.22;99678.63;5050480;28;20084;-79
2022/12/07 04:46:50;;;;;;;5.82;1.80;;;;;;;5.93;69.24;99675.94;5050327;28;20132;-79
2022/12/07 04:49:18;;;;;;;7.18;1.85;;;;;;;5.94;69.04;99684.66;5050422;28;20564;-79
2022/12/07 04:51:45;;;;;;;6.60;1.45;;;;;;;5.93;68.93;99686.41;5050496;28;20057;-79
2022/12/07 04:54:13;;;;;;;8.85;1.88;;;;;;;5.95;68.91;99684.56;5050405;28;20084;-79
2022/12/07 04:56:39;;;;;;;6.82;1.40;;;;;;;5.94;69.03;99682.88;5049963;28;20356;-79
2022/12/07 04:59:06;;;;;;;4.07;1.52;;;;;;;5.94;68.78;99679.41;5050340;28;20072;-79
2022/12/07 05:01:33;;;;;;;2.75;1.30;;;;;;;5.93;68.86;99681.16;5050342;28;20110;-79
2022/12/07 05:04:00;;;;;;;8.63;1.70;;;;;;;5.93;68.58;99680.31;5050155;28;20118;-80
2022/12/07 05:06:26;;;;;;;4.15;1.45;;;;;;;5.91;68.59;99685.59;5049756;28;20132;-79
2022/12/07 05:08:53;;;;;;;7.28;2.30;;;;;;;5.90;68.40;99677.84;5049524;28;20140;-79
2022/12/07 05:14:14;;;;;;;6.35;1.33;;;;;;;5.86;68.91;99677.09;5050096;28;20049;-79
2022/12/07 05:16:42;;;;;;;4.20;1.40;;;;;;;5.88;68.75;99677.88;5049615;28;20077;-80
2022/12/07 05:19:09;;;;;;;9.32;2.08;;;;;;;5.86;68.92;99684.91;5049693;28;20053;-80
2022/12/07 05:21:36;;;;;;;8.07;1.75;;;;;;;5.87;68.89;99687.47;5049726;28;20052;-80
2022/12/07 05:24:03;;;;;;;5.38;2.00;;;;;;;5.89;69.16;99676.97;5049851;28;20092;-80
2022/12/07 05:26:30;;;;;;;4.32;1.60;;;;;;;5.89;69.16;99678.72;5049559;28;20102;-80
2022/12/07 05:28:57;;;;;;;4.95;1.63;;;;;;;5.89;68.88;99683.94;5049581;28;20053;-80
2022/12/07 05:31:25;;;;;;;6.90;1.58;;;;;;;5.91;69.05;99689.97;5049499;28;20053;-80
2022/12/07 05:33:52;;;;;;;5.78;1.50;;;;;;;5.91;68.93;99674.31;5048204;28;20152;-80
2022/12/07 05:36:19;;;;;;;4.82;1.40;;;;;;;5.91;68.81;99677.75;5049761;28;20053;-80
2022/12/07 05:38:45;;;;;;;4.53;1.50;;;;;;;5.90;68.78;99680.44;5049289;28;20447;-80
2022/12/07 05:44:00;;;;;;;6.95;1.80;;;;;;;5.90;68.35;99675.22;5049459;28;20076;-79
2022/12/07 05:46:26;;;;;;;10.55;1.42;;;;;;;5.88;68.56;99672.66;5049115;28;20388;-80
2022/12/07 05:48:53;;;;;;;4.20;1.38;;;;;;;5.87;68.96;99677.03;5049421;28;20083;-80
2022/12/07 05:51:19;;;;;;;6.40;1.67;;;;;;;5.85;68.88;99670.16;5049469;28;20087;-80
2022/12/07 05:53:46;;;;;;;4.55;1.33;;;;;;;5.86;69.02;99672.72;5047993;28;20083;-79
2022/12/07 05:56:12;;;;;;;4.05;1.38;;;;;;;5.85;69.10;99664.94;5049232;28;20106;-80
2022/12/07 06:01:23;;;;;;;6.05;1.98;;;;;;;5.87;68.83;99666.56;5049492;28;20091;-79
2022/12/07 06:03:50;;;;;;;4.45;1.25;;;;;;;5.90;68.81;99664.78;5049319;28;20049;-79
2022/12/07 06:06:16;;;;;;;7.60;1.52;;;;;;;5.92;69.02;99673.38;5047829;28;20130;-80
2022/12/07 06:14:02;;;;;;;2.47;1.25;;;;;;;5.94;68.90;99648.91;5010854;28;20061;-83
2022/12/07 06:16:29;;;;;;;6.82;1.58;;;;;;;5.96;68.84;99656.69;5010420;28;20053;-82
2022/12/07 06:18:56;;;;;;;7.88;1.80;;;;;;;5.96;68.76;99660.16;5010177;28;20583;-80
2022/12/07 06:21:22;;;;;;;8.20;2.08;;;;;;;5.95;68.71;99657.59;5010510;28;20054;-82
2022/12/07 06:23:49;;;;;;;5.22;1.10;;;;;;;5.94;68.23;99663.75;5010473;28;20045;-81
2022/12/07 06:26:15;;;;;;;6.57;1.50;;;;;;;5.92;67.96;99662.94;5010399;28;20051;-82
2022/12/07 06:28:42;;;;;;;6.53;1.20;;;;;;;5.89;67.86;99668.28;4992846;28;20727;-81
2022/12/07 06:31:09;;;;;;;7.00;1.77;;;;;;;5.84;67.77;99671.09;5010727;28;20145;-81
2022/12/07 06:33:40;;;;;;;4.85;1.63;;;;;;;5.79;67.78;99668.63;4993649;28;20046;-81
2022/12/07 06:36:07;;;;;;;6.15;1.92;;;;;;;5.71;67.62;99668.94;5010428;28;20085;-81
2022/12/07 06:38:33;;;;;;;8.05;1.80;;;;;;;5.67;67.53;99664.75;5010607;28;20383;-82
2022/12/07 06:41:00;;;;;;;6.15;1.90;;;;;;;5.61;67.64;99670.22;5010253;28;20567;-80
2022/12/07 06:43:27;;;;;;;5.57;1.80;;;;;;;5.55;67.78;99675.66;5010358;28;20137;-82
2022/12/07 06:45:53;;;;;;;7.15;2.08;;;;;;;5.50;67.90;99664.53;4996437;28;20050;-82
2022/12/07 06:48:20;;;;;;;8.57;1.77;;;;;;;5.45;68.03;99675.13;5014113;28;20138;-83
2022/12/07 06:50:47;;;;;;;4.30;1.40;;;;;;;5.40;67.74;99677.06;5014184;28;20050;-82
2022/12/07 06:53:20;;;;;;;6.25;1.30;;;;;;;5.37;67.96;99674.56;5014104;28;20052;-82
2022/12/07 06:55:46;;;;;;;13.60;1.63;;;;;;;5.33;67.95;99673.84;5014630;28;20058;-82
2022/12/07 06:58:13;;;;;;;6.18;1.70;;;;;;;5.30;68.21;99672.19;5013581;28;20049;-82
2022/12/07 07:00:40;;;;;;;4.75;1.40;;;;;;;5.26;68.24;99678.41;5014028;28;20049;-82
2022/12/07 07:03:07;;;;;;;3.97;1.05;;;;;;;5.23;68.24;99675.91;5013939;28;20049;-81
2022/12/07 07:05:34;;;;;;;4.25;1.20;;;;;;;5.22;68.20;99689.88;5013426;28;20054;-82
2022/12/07 07:08:00;;;;;;;2.58;1.17;;;;;;;5.20;68.59;99681.28;4996059;28;20088;-80
2022/12/07 07:10:47;;;;;;;5.93;1.30;;;;;;;5.20;68.73;99683.88;5013411;28;20045;-79
2022/12/07 07:13:13;;;;;;;3.47;1.48;;;;;;;5.19;68.93;99675.19;5013582;28;20475;-81
2022/12/07 07:15:40;;;;;;;9.02;1.52;;;;;;;5.19;69.02;99675.19;5013384;28;20054;-82
2022/12/07 07:18:06;;;;;;;6.00;1.45;;;;;;;5.22;69.10;99676.81;5013359;28;20126;-81
2022/12/07 07:20:34;;;;;;;7.68;2.08;;;;;;;5.23;69.16;99681.13;4996060;28;20064;-81
2022/12/07 07:23:00;;;;;;;3.75;1.40;;;;;;;5.25;69.12;99678.47;5013399;28;20053;-82
2022/12/07 07:25:27;;;;;;;5.90;1.35;;;;;;;5.25;68.88;99681.09;5013156;28;20545;-83
2022/12/07 07:27:54;;;;;;;2.80;1.10;;;;;;;5.26;68.60;99690.59;5013176;28;20057;-82
2022/12/07 07:30:21;;;;;;;3.53;1.38;;;;;;;5.24;68.55;99688.09;5013369;28;20049;-82
2022/12/07 07:32:47;;;;;;;4.57;1.60;;;;;;;5.22;68.48;99688.13;4995808;28;20157;-82
2022/12/07 07:35:14;;;;;;;3.70;1.45;;;;;;;5.20;68.46;99692.53;5013004;28;20046;-82
2022/12/07 07:37:41;;;;;;;6.22;1.13;;;;;;;5.18;68.43;99693.50;5012846;28;20080;-82
2022/12/07 07:40:08;;;;;;;12.52;1.63;;;;;;;5.16;68.66;99687.50;5013199;28;20123;-82
2022/12/07 07:42:35;;;;;;;5.50;1.50;;;;;;;5.14;68.31;99694.50;5013324;28;20085;-82
2022/12/07 07:45:02;;;;;;;10.40;1.60;;;;;;;5.12;68.35;99693.72;5013010;28;20157;-82
2022/12/07 07:47:28;;;;;;;8.40;1.70;;;;;;;5.10;68.54;99696.41;5012725;28;20549;-80
2022/12/07 07:49:55;;;;;;;6.65;1.50;;;;;;;5.07;68.40;99692.13;5013145;28;20046;-81
2022/12/07 07:52:22;;;;;;;5.18;1.80;;;;;;;5.07;68.54;99701.72;5012877;28;20137;-81
2022/12/07 07:54:48;;;;;;;6.20;1.65;;;;;;;5.04;68.53;99692.25;4995067;28;20058;-82
2022/12/07 07:57:16;;;;;;;5.85;1.50;;;;;;;5.01;68.48;99697.56;5012734;28;20156;-80
2022/12/07 07:59:43;;;;;;;8.85;1.40;;;;;;;5.01;68.64;99694.13;4995294;28;20137;-80
2022/12/07 08:02:14;;;;;;;6.40;1.38;;;;;;;4.97;68.78;99695.97;4995578;28;20049;-82
2022/12/07 08:04:41;;;;;;;3.15;1.60;;;;;;;4.97;68.64;99695.13;5012580;28;20053;-80
2022/12/07 08:07:08;;;;;;;5.40;1.48;;;;;;;4.95;68.48;99693.44;5012519;28;20046;-81
2022/12/07 08:09:34;;;;;;;8.15;1.75;;;;;;;4.94;68.74;99693.47;5012457;28;20544;-82
2022/12/07 08:12:01;;;;;;;5.88;1.80;;;;;;;4.93;68.72;99692.63;5012800;28;20466;-81
2022/12/07 08:14:28;;;;;;;5.45;1.40;;;;;;;4.93;69.06;99689.13;5012538;28;20084;-81
2022/12/07 08:16:55;;;;;;;5.47;1.50;;;;;;;4.92;68.97;99695.28;5012228;28;20053;-82
2022/12/07 08:19:22;;;;;;;5.68;1.40;;;;;;;4.92;69.09;99696.13;5012333;28;20050;-81
2022/12/07 08:21:48;;;;;;;5.35;2.10;;;;;;;4.92;69.31;99698.75;4994867;28;20050;-81
2022/12/07 08:24:15;;;;;;;9.63;2.00;;;;;;;4.96;69.53;99699.47;5012384;28;20065;-81
2022/12/07 08:26:42;;;;;;;6.88;1.80;;;;;;;4.97;69.55;99702.94;5011981;28;20133;-83
2022/12/07 08:29:09;;;;;;;5.15;1.77;;;;;;;5.00;69.53;99700.22;5012160;28;20494;-81
2022/12/07 08:31:36;;;;;;;8.25;2.10;;;;;;;5.02;69.59;99696.66;5012153;28;20467;-82
2022/12/07 08:34:02;;;;;;;7.03;1.75;;;;;;;5.05;69.20;99695.72;5012366;28;20537;-82
2022/12/07 08:36:29;;;;;;;5.97;2.03;;;;;;;5.07;69.16;99696.50;5012070;28;20064;-82
2022/12/07 08:38:55;;;;;;;6.47;1.65;;;;;;;5.06;69.15;99698.28;5012071;28;20137;-80
2022/12/07 08:41:42;;;;;;;5.35;1.77;;;;;;;5.07;69.43;99706.94;5012222;28;20096;-81
2022/12/07 08:44:08;;;;;;;5.32;1.73;;;;;;;5.08;69.42;99698.19;5011955;28;20054;-83
2022/12/07 08:46:37;;;;;;;9.02;2.15;;;;;;;5.08;69.46;99699.06;5011450;28;20100;-82
2022/12/07 08:49:33;;;;;;;6.13;1.80;;;;;;;5.08;70.22;99706.88;5012236;28;20072;-82
2022/12/07 08:52:04;;;;;;;4.35;1.45;;;;;;;5.15;69.70;99704.03;5009315;28;20610;-82
2022/12/07 08:54:30;;;;;;;7.15;1.60;;;;;;;5.18;69.79;99698.72;4994694;28;20049;-82
2022/12/07 08:56:57;;;;;;;6.07;1.58;;;;;;;5.20;69.93;99709.97;5011912;28;20053;-83
2022/12/07 08:59:27;;;;;;;7.43;1.55;;;;;;;5.25;70.06;99704.56;4994765;28;20058;-82
2022/12/07 09:01:54;;;;;;;5.65;1.20;;;;;;;5.30;70.03;99700.03;5011738;28;20550;-81
2022/12/07 09:04:20;;;;;;;5.28;1.90;;;;;;;5.33;70.31;99708.63;5011725;28;20490;-81
2022/12/07 09:06:48;;;;;;;5.90;1.80;;;;;;;5.39;70.28;99704.09;5010725;28;20502;-81
2022/12/07 09:09:15;;;;;;;4.07;1.25;;;;;;;5.44;70.31;99710.84;4994101;28;20042;-81
2022/12/07 09:11:42;;;;;;;5.75;1.42;;;;;;;5.51;70.45;99711.47;5011921;28;20045;-82
2022/12/07 09:14:08;;;;;;;7.80;1.58;;;;;;;5.56;70.39;99706.06;5011865;28;20112;-81
2022/12/07 09:16:35;;;;;;;7.43;1.85;;;;;;;5.61;70.11;99702.38;5011313;28;20053;-81
2022/12/07 09:19:02;;;;;;;6.95;1.55;;;;;;;5.67;70.24;99708.28;5011444;28;20140;-81
2022/12/07 09:21:28;;;;;;;7.32;1.92;;;;;;;5.71;70.07;99704.63;5011385;28;20041;-82
2022/12/07 09:23:55;;;;;;;3.53;1.30;;;;;;;5.76;70.25;99702.72;4993765;28;20057;-80
2022/12/07 09:26:22;;;;;;;4.32;1.45;;;;;;;5.82;69.90;99709.47;5011244;28;20073;-81
2022/12/07 09:28:48;;;;;;;9.88;1.88;;;;;;;5.86;70.06;99717.13;4993946;28;20406;-83
2022/12/07 09:31:15;;;;;;;9.77;1.70;;;;;;;5.90;70.03;99717.84;5011207;28;20048;-81
2022/12/07 09:33:59;;;;;;;5.07;1.48;;;;;;;5.94;69.95;99718.59;5011448;28;20406;-81
2022/12/07 09:36:28;;;;;;;6.63;1.77;;;;;;;5.99;69.89;99709.66;5010890;28;20092;-81
2022/12/07 09:38:54;;;;;;;7.97;1.70;;;;;;;6.02;69.73;99706.06;4993713;28;20057;-83
2022/12/07 09:41:23;;;;;;;5.95;1.80;;;;;;;6.05;69.71;99706.00;5011129;28;20050;-82
2022/12/07 09:43:50;;;;;;;5.03;1.50;;;;;;;6.11;69.87;99704.91;5011260;28;20061;-81
2022/12/07 09:46:19;;;;;;;3.78;1.10;;;;;;;6.15;69.64;99705.63;4993436;28;20077;-82
2022/12/07 09:48:49;;;;;;;6.43;1.40;;;;;;;6.23;70.13;99703.56;5010848;28;20050;-81
2022/12/07 09:51:20;;;;;;;3.53;1.50;;;;;;;6.28;70.27;99714.69;5011343;28;20459;-82
2022/12/07 09:53:52;;;;;;;10.10;1.85;;;;;;;6.35;69.72;99707.44;5011335;28;20056;-82
2022/12/07 09:56:21;;;;;;;4.65;1.40;;;;;;;6.42;69.67;99705.47;5010900;28;20050;-81
2022/12/07 09:58:49;;;;;;;7.13;1.92;;;;;;;6.48;69.75;99702.59;5010753;28;20506;-81
2022/12/07 10:01:21;;;;;;;4.82;1.00;;;;;;;6.51;69.84;99695.44;4993391;28;20050;-82
2022/12/07 10:03:54;;;;;;;6.73;1.47;;;;;;;6.58;69.62;99698.66;5011374;28;20056;-81
2022/12/07 10:06:21;;;;;;;5.78;1.73;;;;;;;6.67;69.95;99696.59;5010857;28;20089;-82
2022/12/07 10:08:48;;;;;;;4.30;1.58;;;;;;;6.73;69.42;99696.34;5010853;28;20049;-81
2022/12/07 10:11:15;;;;;;;4.32;1.40;;;;;;;6.78;69.25;99695.22;5011181;28;20050;-82
2022/12/07 10:13:53;;;;;;;8.82;1.55;;;;;;;6.81;68.98;99693.38;5010777;28;20054;-82
2022/12/07 10:16:46;;;;;;;5.13;1.10;;;;;;;6.85;68.91;99693.22;5010912;28;20054;-82
2022/12/07 10:19:27;;;;;;;5.13;1.02;;;;;;;6.91;68.84;99689.47;5009423;28;20517;-82
2022/12/07 10:22:10;;;;;;;5.47;1.33;;;;;;;6.95;68.78;99690.19;4997455;28;20076;-82
2022/12/07 10:24:42;;;;;;;4.75;1.38;;;;;;;7.00;68.70;99681.19;4997485;28;20057;-82
2022/12/07 10:27:25;;;;;;;7.50;1.70;;;;;;;7.01;68.42;99695.16;5014610;28;20100;-82
2022/12/07 10:29:53;;;;;;;3.25;1.10;;;;;;;7.08;68.73;99691.38;5014804;28;20056;-82
2022/12/07 10:32:19;;;;;;;7.30;1.45;;;;;;;7.13;68.86;99683.28;5014685;28;20054;-82
2022/12/07 10:34:46;;;;;;;5.70;1.67;;;;;;;7.17;68.73;99683.09;5014466;28;20129;-82
2022/12/07 10:37:20;;;;;;;6.20;1.10;;;;;;;7.21;68.63;99675.94;5014772;28;20422;-81
2022/12/07 10:39:48;;;;;;;4.75;1.20;;;;;;;7.26;68.49;99675.75;5014723;28;20099;-82
2022/12/07 10:42:21;;;;;;;6.72;2.00;;;;;;;7.29;67.96;99678.25;5014536;28;20411;-82
2022/12/07 10:44:50;;;;;;;6.22;1.70;;;;;;;7.33;68.35;99679.78;5014332;28;20046;-80
2022/12/07 10:47:47;;;;;;;6.82;1.50;;;;;;;7.33;67.83;99678.94;5014067;28;20132;-82
2022/12/07 10:50:29;;;;;;;5.15;1.98;;;;;;;7.35;67.29;99687.56;5014414;28;20049;-81
2022/12/07 10:53:16;;;;;;;4.57;1.40;;;;;;;7.34;67.10;99673.66;5014347;28;20053;-82
2022/12/07 10:55:48;;;;;;;5.28;1.30;;;;;;;7.34;67.58;99681.50;5014189;28;20236;-82
2022/12/07 10:58:45;;;;;;;5.07;1.52;;;;;;;7.31;67.42;99676.41;5014219;28;20053;-82
2022/12/07 11:01:49;;;;;;;8.40;2.00;;;;;;;7.31;67.43;99676.41;5014308;28;20046;-81
2022/12/07 11:04:48;;;;;;;2.58;1.23;;;;;;;7.33;67.93;99671.94;5014276;28;20209;-82
2022/12/07 11:07:52;;;;;;;5.63;1.50;;;;;;;7.37;67.80;99660.41;5013872;28;20053;-81
2022/12/07 11:10:31;;;;;;;6.32;1.30;;;;;;;7.45;68.13;99660.06;5014173;28;20068;-80
2022/12/07 11:12:58;;;;;;;3.35;1.30;;;;;;;7.54;68.77;99656.16;5014134;28;20057;-82
2022/12/07 11:15:55;;;;;;;8.70;1.50;;;;;;;7.58;68.06;99652.47;5013860;28;20579;-82
2022/12/07 11:18:26;;;;;;;8.35;1.23;;;;;;;7.70;68.47;99656.28;5013695;28;20128;-82
2022/12/07 11:21:37;;;;;;;3.50;1.33;;;;;;;7.76;67.87;99655.16;5014147;28;20058;-82
2022/12/07 11:24:32;;;;;;;5.20;1.45;;;;;;;7.86;67.31;99645.97;5013940;28;20068;-82
2022/12/07 11:27:35;;;;;;;3.83;1.17;;;;;;;7.94;66.89;99651.69;5002207;28;20140;-82
2022/12/07 11:30:23;;;;;;;5.65;1.00;;;;;;;7.98;66.13;99654.16;4961626;28;20042;-83
2022/12/07 11:33:09;;;;;;;3.55;1.02;;;;;;;8.00;66.41;99632.19;5013449;28;20064;-83
2022/12/07 11:35:42;;;;;;;5.28;1.38;;;;;;;7.97;66.01;99637.59;5013529;28;20096;-82
2022/12/07 11:38:16;;;;;;;4.00;1.13;;;;;;;7.99;66.80;99627.88;5013417;28;20050;-81
2022/12/07 11:40:51;;;;;;;3.63;1.30;;;;;;;8.17;70.17;99626.13;4996506;28;20096;-81
2022/12/07 11:43:28;;;;;;;4.25;1.08;;;;;;;8.47;71.27;99615.03;5013305;28;20096;-82
2022/12/07 11:46:02;;;;;;;4.43;1.42;;;;;;;8.92;71.12;99627.66;5013110;28;20050;-81
2022/12/07 11:48:34;;;;;;;3.45;1.00;;;;;;;9.38;70.05;99629.63;5013204;28;20053;-81
2022/12/07 11:51:02;;;;;;;6.40;1.33;;;;;;;9.77;68.79;99621.41;5013342;28;20050;-79
2022/12/07 11:53:31;;;;;;;6.65;1.25;;;;;;;10.01;66.92;99611.28;5013359;28;20136;-81
2022/12/07 11:56:01;;;;;;;4.47;1.35;;;;;;;10.12;63.75;99609.81;5012891;28;20042;-82
2022/12/07 11:58:47;;;;;;;5.25;0.82;;;;;;;10.11;62.44;99605.50;5013053;28;20057;-82
2022/12/07 12:01:16;;;;;;;2.95;1.35;;;;;;;10.07;62.88;99614.50;5013101;28;20514;-83
2022/12/07 12:03:58;;;;;;;6.15;1.58;;;;;;;9.90;62.05;99611.03;5012958;28;20140;-80
2022/12/07 12:06:24;;;;;;;7.32;1.42;;;;;;;9.81;62.97;99612.41;5012692;28;20046;-82
2022/12/07 12:11:47;;;;;;;5.07;1.70;;;;;;;9.53;62.91;99603.44;5069685;23;20145;-78
2022/12/07 12:14:45;;;;;;;5.10;1.50;;;;;;;9.46;63.04;99595.03;5012119;28;20108;-78
2022/12/07 12:17:35;;;;;;;9.38;1.40;;;;;;;9.45;63.57;99595.97;4994657;28;20137;-78
2022/12/07 12:20:28;;;;;;;3.72;1.13;;;;;;;9.48;63.30;99592.34;5012060;28;20057;-78
2022/12/07 12:23:01;;;;;;;4.30;1.30;;;;;;;9.51;63.29;99590.41;5011939;28;20073;-78